EBCI

Brussels South Charleroi Airport

Brussels, Belgium
TAF EBCI 251720Z 2518/2624 08005KT CAVOK
Issued Valid From Valid To
Sep-25 @ 17:20 UTC
(21 minutes ago)
Sep-25 @ 18:00 UTC
(in 19 minutes)
Sep-27 @ 00:00 UTC
(-1 days ago)
Sep-25 @ 18:00 to Sep-27 @ 00:00
TAF EBCI 251720Z 2518/2624 08005KT CAVOK
Wind Visibility Clouds Conditions
80° at 5 knots 10,000+ meters
  • No significant clouds
TAF EBCI 251720Z 2518/2624 08005KT CAVOK
Issued Sep-25 @ 17:20 UTC
(21 minutes ago)
Valid From Sep-25 @ 18:00 UTC
(in 19 minutes)
Valid To Sep-27 @ 00:00 UTC
(-1 days ago)
Sep-25 @ 18:00 - Sep-27 @ 00:00
Wind Visibility
80° at 5 knots 10,000+ meters
Clouds
  • No significant clouds
Conditions